sensor_id;sensor_type;location;lat;lon;timestamp;P1;durP1;ratioP1;P2;durP2;ratioP2
63906;SDS011;50075;49.484;11.238;2023-05-07T00:02:22;351.40;;;63.03;;
63906;SDS011;50075;49.484;11.238;2023-05-07T00:04:48;296.98;;;63.15;;
63906;SDS011;50075;49.484;11.238;2023-05-07T00:07:13;340.25;;;63.90;;
63906;SDS011;50075;49.484;11.238;2023-05-07T00:09:39;298.42;;;63.17;;
63906;SDS011;50075;49.484;11.238;2023-05-07T00:12:04;325.02;;;63.30;;
63906;SDS011;50075;49.484;11.238;2023-05-07T00:14:30;317.05;;;63.00;;
63906;SDS011;50075;49.484;11.238;2023-05-07T00:16:55;310.98;;;63.03;;
63906;SDS011;50075;49.484;11.238;2023-05-07T00:19:21;304.87;;;62.97;;
63906;SDS011;50075;49.484;11.238;2023-05-07T00:21:46;239.68;;;60.40;;
63906;SDS011;50075;49.484;11.238;2023-05-07T00:24:11;298.25;;;59.78;;
63906;SDS011;50075;49.484;11.238;2023-05-07T00:26:37;312.57;;;61.60;;
63906;SDS011;50075;49.484;11.238;2023-05-07T00:29:02;317.50;;;63.07;;
63906;SDS011;50075;49.484;11.238;2023-05-07T00:31:27;338.52;;;62.08;;
63906;SDS011;50075;49.484;11.238;2023-05-07T00:33:52;428.67;;;66.00;;
63906;SDS011;50075;49.484;11.238;2023-05-07T00:36:17;355.88;;;61.55;;
63906;SDS011;50075;49.484;11.238;2023-05-07T00:38:43;379.58;;;63.55;;
63906;SDS011;50075;49.484;11.238;2023-05-07T00:41:08;360.43;;;62.07;;
63906;SDS011;50075;49.484;11.238;2023-05-07T00:43:33;380.95;;;63.75;;
63906;SDS011;50075;49.484;11.238;2023-05-07T00:45:59;399.05;;;65.90;;
63906;SDS011;50075;49.484;11.238;2023-05-07T00:48:24;381.17;;;65.05;;
63906;SDS011;50075;49.484;11.238;2023-05-07T00:50:50;347.23;;;64.50;;
63906;SDS011;50075;49.484;11.238;2023-05-07T00:53:15;384.50;;;65.80;;
63906;SDS011;50075;49.484;11.238;2023-05-07T00:55:40;350.38;;;65.38;;
63906;SDS011;50075;49.484;11.238;2023-05-07T00:58:06;373.70;;;68.35;;
63906;SDS011;50075;49.484;11.238;2023-05-07T01:00:31;355.37;;;65.20;;
63906;SDS011;50075;49.484;11.238;2023-05-07T01:02:56;298.73;;;62.05;;
63906;SDS011;50075;49.484;11.238;2023-05-07T01:05:23;351.90;;;67.18;;
63906;SDS011;50075;49.484;11.238;2023-05-07T01:07:50;325.42;;;66.28;;
63906;SDS011;50075;49.484;11.238;2023-05-07T01:10:16;320.35;;;66.75;;
63906;SDS011;50075;49.484;11.238;2023-05-07T01:12:42;312.58;;;68.38;;
63906;SDS011;50075;49.484;11.238;2023-05-07T01:15:08;304.95;;;63.97;;
63906;SDS011;50075;49.484;11.238;2023-05-07T01:17:40;389.48;;;70.03;;
63906;SDS011;50075;49.484;11.238;2023-05-07T01:20:06;398.63;;;69.90;;
63906;SDS011;50075;49.484;11.238;2023-05-07T01:22:32;362.45;;;67.03;;
63906;SDS011;50075;49.484;11.238;2023-05-07T01:24:58;361.20;;;64.82;;
63906;SDS011;50075;49.484;11.238;2023-05-07T01:27:24;372.20;;;63.70;;
63906;SDS011;50075;49.484;11.238;2023-05-07T01:29:50;394.35;;;67.68;;
63906;SDS011;50075;49.484;11.238;2023-05-07T01:32:15;356.90;;;63.13;;
63906;SDS011;50075;49.484;11.238;2023-05-07T01:34:42;292.52;;;62.17;;
63906;SDS011;50075;49.484;11.238;2023-05-07T01:37:08;312.35;;;50.63;;
63906;SDS011;50075;49.484;11.238;2023-05-07T01:39:36;269.60;;;52.72;;
63906;SDS011;50075;49.484;11.238;2023-05-07T01:42:01;263.27;;;54.35;;
63906;SDS011;50075;49.484;11.238;2023-05-07T01:44:26;292.33;;;56.47;;
63906;SDS011;50075;49.484;11.238;2023-05-07T01:46:52;322.77;;;57.65;;
63906;SDS011;50075;49.484;11.238;2023-05-07T01:49:18;403.52;;;62.20;;
63906;SDS011;50075;49.484;11.238;2023-05-07T01:51:43;230.82;;;57.55;;
63906;SDS011;50075;49.484;11.238;2023-05-07T01:54:09;271.77;;;57.70;;
63906;SDS011;50075;49.484;11.238;2023-05-07T01:56:34;280.63;;;45.15;;
63906;SDS011;50075;49.484;11.238;2023-05-07T01:59:00;275.88;;;54.97;;
63906;SDS011;50075;49.484;11.238;2023-05-07T02:01:25;233.10;;;54.30;;
63906;SDS011;50075;49.484;11.238;2023-05-07T02:03:50;378.73;;;60.45;;
63906;SDS011;50075;49.484;11.238;2023-05-07T02:06:16;262.60;;;56.42;;
63906;SDS011;50075;49.484;11.238;2023-05-07T02:08:41;289.10;;;58.08;;
63906;SDS011;50075;49.484;11.238;2023-05-07T02:11:06;258.83;;;48.60;;
63906;SDS011;50075;49.484;11.238;2023-05-07T02:13:32;312.50;;;51.72;;
63906;SDS011;50075;49.484;11.238;2023-05-07T02:15:58;349.23;;;44.60;;
63906;SDS011;50075;49.484;11.238;2023-05-07T02:18:23;298.42;;;47.30;;
63906;SDS011;50075;49.484;11.238;2023-05-07T02:20:48;331.75;;;49.92;;
63906;SDS011;50075;49.484;11.238;2023-05-07T02:23:14;312.42;;;54.92;;
63906;SDS011;50075;49.484;11.238;2023-05-07T02:25:39;318.00;;;56.60;;
63906;SDS011;50075;49.484;11.238;2023-05-07T02:28:04;372.00;;;59.63;;
63906;SDS011;50075;49.484;11.238;2023-05-07T02:30:29;365.85;;;59.75;;
63906;SDS011;50075;49.484;11.238;2023-05-07T02:32:54;323.53;;;55.37;;
63906;SDS011;50075;49.484;11.238;2023-05-07T02:35:20;408.52;;;57.70;;
63906;SDS011;50075;49.484;11.238;2023-05-07T02:37:45;314.07;;;50.27;;
63906;SDS011;50075;49.484;11.238;2023-05-07T02:40:10;319.90;;;57.17;;
63906;SDS011;50075;49.484;11.238;2023-05-07T02:42:36;312.08;;;59.38;;
63906;SDS011;50075;49.484;11.238;2023-05-07T02:45:01;265.05;;;61.75;;
63906;SDS011;50075;49.484;11.238;2023-05-07T02:47:26;335.27;;;57.42;;
63906;SDS011;50075;49.484;11.238;2023-05-07T02:49:53;260.40;;;62.28;;
63906;SDS011;50075;49.484;11.238;2023-05-07T02:52:18;279.42;;;64.82;;
63906;SDS011;50075;49.484;11.238;2023-05-07T02:54:44;312.50;;;65.55;;
63906;SDS011;50075;49.484;11.238;2023-05-07T02:57:09;250.50;;;58.22;;
63906;SDS011;50075;49.484;11.238;2023-05-07T02:59:34;277.60;;;57.10;;
63906;SDS011;50075;49.484;11.238;2023-05-07T03:02:00;266.43;;;58.80;;
63906;SDS011;50075;49.484;11.238;2023-05-07T03:04:25;286.00;;;66.17;;
63906;SDS011;50075;49.484;11.238;2023-05-07T03:06:50;307.30;;;68.72;;
63906;SDS011;50075;49.484;11.238;2023-05-07T03:09:16;333.23;;;70.25;;
63906;SDS011;50075;49.484;11.238;2023-05-07T03:11:41;351.65;;;70.80;;
63906;SDS011;50075;49.484;11.238;2023-05-07T03:14:07;406.63;;;76.53;;
63906;SDS011;50075;49.484;11.238;2023-05-07T03:16:32;388.43;;;77.60;;
63906;SDS011;50075;49.484;11.238;2023-05-07T03:18:57;354.27;;;75.38;;
63906;SDS011;50075;49.484;11.238;2023-05-07T03:21:23;327.87;;;73.33;;
63906;SDS011;50075;49.484;11.238;2023-05-07T03:23:48;492.40;;;82.63;;
63906;SDS011;50075;49.484;11.238;2023-05-07T03:26:13;383.40;;;76.63;;
63906;SDS011;50075;49.484;11.238;2023-05-07T03:28:38;391.33;;;74.97;;
63906;SDS011;50075;49.484;11.238;2023-05-07T03:31:03;404.37;;;78.57;;
63906;SDS011;50075;49.484;11.238;2023-05-07T03:33:29;349.73;;;57.08;;
63906;SDS011;50075;49.484;11.238;2023-05-07T03:35:54;303.57;;;66.70;;
63906;SDS011;50075;49.484;11.238;2023-05-07T03:38:19;371.67;;;70.45;;
63906;SDS011;50075;49.484;11.238;2023-05-07T03:40:44;359.83;;;65.40;;
63906;SDS011;50075;49.484;11.238;2023-05-07T03:43:10;335.50;;;71.70;;
63906;SDS011;50075;49.484;11.238;2023-05-07T03:45:35;319.92;;;72.82;;
63906;SDS011;50075;49.484;11.238;2023-05-07T03:48:00;273.50;;;74.35;;
63906;SDS011;50075;49.484;11.238;2023-05-07T03:50:25;270.80;;;71.83;;
63906;SDS011;50075;49.484;11.238;2023-05-07T03:52:51;317.92;;;74.35;;
63906;SDS011;50075;49.484;11.238;2023-05-07T03:55:16;316.02;;;78.90;;
63906;SDS011;50075;49.484;11.238;2023-05-07T03:57:41;347.13;;;82.22;;
63906;SDS011;50075;49.484;11.238;2023-05-07T04:00:07;322.67;;;79.13;;
63906;SDS011;50075;49.484;11.238;2023-05-07T04:02:33;309.10;;;80.60;;
63906;SDS011;50075;49.484;11.238;2023-05-07T04:04:58;314.13;;;77.35;;
63906;SDS011;50075;49.484;11.238;2023-05-07T04:07:23;315.03;;;77.30;;
63906;SDS011;50075;49.484;11.238;2023-05-07T04:09:48;342.95;;;74.50;;
63906;SDS011;50075;49.484;11.238;2023-05-07T04:12:14;399.90;;;81.07;;
63906;SDS011;50075;49.484;11.238;2023-05-07T04:14:40;399.00;;;84.63;;
63906;SDS011;50075;49.484;11.238;2023-05-07T04:17:05;250.70;;;54.17;;
63906;SDS011;50075;49.484;11.238;2023-05-07T04:19:32;277.33;;;42.20;;
63906;SDS011;50075;49.484;11.238;2023-05-07T04:21:58;253.40;;;42.95;;
63906;SDS011;50075;49.484;11.238;2023-05-07T04:24:23;230.03;;;38.47;;
63906;SDS011;50075;49.484;11.238;2023-05-07T04:26:48;231.13;;;35.42;;
63906;SDS011;50075;49.484;11.238;2023-05-07T04:29:13;214.93;;;30.97;;
63906;SDS011;50075;49.484;11.238;2023-05-07T04:31:39;251.57;;;39.63;;
63906;SDS011;50075;49.484;11.238;2023-05-07T04:34:04;214.90;;;37.75;;
63906;SDS011;50075;49.484;11.238;2023-05-07T04:36:30;200.70;;;34.60;;
63906;SDS011;50075;49.484;11.238;2023-05-07T04:38:55;213.75;;;33.53;;
63906;SDS011;50075;49.484;11.238;2023-05-07T04:41:20;196.20;;;35.55;;
63906;SDS011;50075;49.484;11.238;2023-05-07T04:43:46;307.67;;;42.60;;
63906;SDS011;50075;49.484;11.238;2023-05-07T04:46:11;217.17;;;43.40;;
63906;SDS011;50075;49.484;11.238;2023-05-07T04:48:36;226.77;;;47.00;;
63906;SDS011;50075;49.484;11.238;2023-05-07T04:51:02;252.48;;;50.47;;
63906;SDS011;50075;49.484;11.238;2023-05-07T04:53:27;195.52;;;45.17;;
63906;SDS011;50075;49.484;11.238;2023-05-07T04:55:56;217.70;;;46.20;;
63906;SDS011;50075;49.484;11.238;2023-05-07T04:58:24;260.88;;;50.05;;
63906;SDS011;50075;49.484;11.238;2023-05-07T05:00:49;234.63;;;48.20;;
63906;SDS011;50075;49.484;11.238;2023-05-07T05:03:15;265.00;;;49.40;;
63906;SDS011;50075;49.484;11.238;2023-05-07T05:05:40;224.43;;;49.55;;
63906;SDS011;50075;49.484;11.238;2023-05-07T05:08:05;257.63;;;52.10;;
63906;SDS011;50075;49.484;11.238;2023-05-07T05:10:30;227.88;;;49.45;;
63906;SDS011;50075;49.484;11.238;2023-05-07T05:12:56;237.02;;;48.50;;
63906;SDS011;50075;49.484;11.238;2023-05-07T05:15:21;254.60;;;46.10;;
63906;SDS011;50075;49.484;11.238;2023-05-07T05:17:46;212.02;;;44.05;;
63906;SDS011;50075;49.484;11.238;2023-05-07T05:20:12;236.48;;;44.85;;
63906;SDS011;50075;49.484;11.238;2023-05-07T05:22:37;240.88;;;46.20;;
63906;SDS011;50075;49.484;11.238;2023-05-07T05:25:03;193.52;;;42.50;;
63906;SDS011;50075;49.484;11.238;2023-05-07T05:27:28;231.05;;;42.42;;
63906;SDS011;50075;49.484;11.238;2023-05-07T05:29:53;222.27;;;43.15;;
63906;SDS011;50075;49.484;11.238;2023-05-07T05:32:19;220.13;;;40.47;;
63906;SDS011;50075;49.484;11.238;2023-05-07T05:34:44;214.23;;;42.97;;
63906;SDS011;50075;49.484;11.238;2023-05-07T05:37:09;222.30;;;44.20;;
63906;SDS011;50075;49.484;11.238;2023-05-07T05:39:36;227.60;;;45.72;;
63906;SDS011;50075;49.484;11.238;2023-05-07T05:42:01;218.63;;;43.25;;
63906;SDS011;50075;49.484;11.238;2023-05-07T05:44:26;207.93;;;40.85;;
63906;SDS011;50075;49.484;11.238;2023-05-07T05:46:51;149.93;;;37.30;;
63906;SDS011;50075;49.484;11.238;2023-05-07T05:49:17;193.35;;;22.17;;
63906;SDS011;50075;49.484;11.238;2023-05-07T05:51:42;207.50;;;29.03;;
63906;SDS011;50075;49.484;11.238;2023-05-07T05:54:07;244.43;;;33.53;;
63906;SDS011;50075;49.484;11.238;2023-05-07T05:56:33;179.80;;;27.97;;
63906;SDS011;50075;49.484;11.238;2023-05-07T05:58:58;165.00;;;32.05;;
63906;SDS011;50075;49.484;11.238;2023-05-07T06:01:23;182.07;;;31.80;;
63906;SDS011;50075;49.484;11.238;2023-05-07T06:03:49;258.42;;;35.35;;
63906;SDS011;50075;49.484;11.238;2023-05-07T06:06:14;169.23;;;25.38;;
63906;SDS011;50075;49.484;11.238;2023-05-07T06:08:39;194.13;;;29.52;;
63906;SDS011;50075;49.484;11.238;2023-05-07T06:11:05;204.38;;;32.50;;
63906;SDS011;50075;49.484;11.238;2023-05-07T06:13:30;157.50;;;34.80;;
63906;SDS011;50075;49.484;11.238;2023-05-07T06:15:55;216.40;;;36.90;;
63906;SDS011;50075;49.484;11.238;2023-05-07T06:18:20;174.60;;;39.53;;
63906;SDS011;50075;49.484;11.238;2023-05-07T06:20:46;197.70;;;39.07;;
63906;SDS011;50075;49.484;11.238;2023-05-07T06:23:11;286.93;;;46.53;;
63906;SDS011;50075;49.484;11.238;2023-05-07T06:25:36;222.90;;;45.60;;
63906;SDS011;50075;49.484;11.238;2023-05-07T06:28:02;196.35;;;46.03;;
63906;SDS011;50075;49.484;11.238;2023-05-07T06:30:27;222.73;;;46.90;;
63906;SDS011;50075;49.484;11.238;2023-05-07T06:32:52;221.90;;;44.88;;
63906;SDS011;50075;49.484;11.238;2023-05-07T06:35:18;238.60;;;44.73;;
63906;SDS011;50075;49.484;11.238;2023-05-07T06:37:43;240.82;;;47.30;;
63906;SDS011;50075;49.484;11.238;2023-05-07T06:40:08;245.25;;;45.17;;
63906;SDS011;50075;49.484;11.238;2023-05-07T06:42:35;214.20;;;42.45;;
63906;SDS011;50075;49.484;11.238;2023-05-07T06:45:00;227.45;;;41.42;;
63906;SDS011;50075;49.484;11.238;2023-05-07T06:47:25;235.05;;;43.08;;
63906;SDS011;50075;49.484;11.238;2023-05-07T06:49:51;216.00;;;40.40;;
63906;SDS011;50075;49.484;11.238;2023-05-07T06:52:16;190.50;;;43.03;;
63906;SDS011;50075;49.484;11.238;2023-05-07T06:54:41;205.10;;;31.93;;
63906;SDS011;50075;49.484;11.238;2023-05-07T06:57:06;211.75;;;35.65;;
63906;SDS011;50075;49.484;11.238;2023-05-07T06:59:32;214.65;;;42.22;;
63906;SDS011;50075;49.484;11.238;2023-05-07T07:01:57;251.43;;;45.63;;
63906;SDS011;50075;49.484;11.238;2023-05-07T07:04:22;194.77;;;44.70;;
63906;SDS011;50075;49.484;11.238;2023-05-07T07:06:49;221.43;;;52.53;;
63906;SDS011;50075;49.484;11.238;2023-05-07T07:09:14;256.77;;;52.30;;
63906;SDS011;50075;49.484;11.238;2023-05-07T07:11:39;226.20;;;49.63;;
63906;SDS011;50075;49.484;11.238;2023-05-07T07:14:05;244.63;;;50.10;;
63906;SDS011;50075;49.484;11.238;2023-05-07T07:16:30;202.75;;;47.85;;
63906;SDS011;50075;49.484;11.238;2023-05-07T07:18:55;245.43;;;47.97;;
63906;SDS011;50075;49.484;11.238;2023-05-07T07:21:20;243.40;;;46.17;;
63906;SDS011;50075;49.484;11.238;2023-05-07T07:23:46;325.87;;;44.23;;
63906;SDS011;50075;49.484;11.238;2023-05-07T07:26:11;175.50;;;8.83;;
63906;SDS011;50075;49.484;11.238;2023-05-07T07:28:41;203.88;;;11.43;;
63906;SDS011;50075;49.484;11.238;2023-05-07T07:31:07;160.60;;;10.45;;
63906;SDS011;50075;49.484;11.238;2023-05-07T07:33:32;167.07;;;10.20;;
63906;SDS011;50075;49.484;11.238;2023-05-07T07:35:57;145.60;;;9.83;;
63906;SDS011;50075;49.484;11.238;2023-05-07T07:38:22;156.80;;;9.90;;
63906;SDS011;50075;49.484;11.238;2023-05-07T07:40:47;184.27;;;10.20;;
63906;SDS011;50075;49.484;11.238;2023-05-07T07:43:13;165.80;;;8.10;;
63906;SDS011;50075;49.484;11.238;2023-05-07T07:45:38;161.20;;;9.93;;
63906;SDS011;50075;49.484;11.238;2023-05-07T07:48:03;173.33;;;9.90;;
63906;SDS011;50075;49.484;11.238;2023-05-07T07:50:29;107.80;;;8.05;;
63906;SDS011;50075;49.484;11.238;2023-05-07T07:52:54;179.05;;;9.43;;
63906;SDS011;50075;49.484;11.238;2023-05-07T07:55:20;166.77;;;9.97;;
63906;SDS011;50075;49.484;11.238;2023-05-07T07:57:47;159.68;;;9.07;;
63906;SDS011;50075;49.484;11.238;2023-05-07T08:00:13;185.57;;;10.27;;
63906;SDS011;50075;49.484;11.238;2023-05-07T08:02:38;126.35;;;8.98;;
63906;SDS011;50075;49.484;11.238;2023-05-07T08:05:04;187.40;;;10.60;;
63906;SDS011;50075;49.484;11.238;2023-05-07T08:07:29;207.65;;;11.23;;
63906;SDS011;50075;49.484;11.238;2023-05-07T08:09:54;223.15;;;12.20;;
63906;SDS011;50075;49.484;11.238;2023-05-07T08:12:20;257.70;;;12.60;;
63906;SDS011;50075;49.484;11.238;2023-05-07T08:14:45;251.02;;;12.80;;
63906;SDS011;50075;49.484;11.238;2023-05-07T08:17:10;265.07;;;13.57;;
63906;SDS011;50075;49.484;11.238;2023-05-07T08:19:36;260.23;;;14.07;;
63906;SDS011;50075;49.484;11.238;2023-05-07T08:22:02;272.17;;;14.52;;
63906;SDS011;50075;49.484;11.238;2023-05-07T08:24:27;242.93;;;13.15;;
63906;SDS011;50075;49.484;11.238;2023-05-07T08:26:52;235.37;;;13.23;;
63906;SDS011;50075;49.484;11.238;2023-05-07T08:29:18;264.50;;;13.83;;
63906;SDS011;50075;49.484;11.238;2023-05-07T08:31:43;181.90;;;12.60;;
63906;SDS011;50075;49.484;11.238;2023-05-07T08:34:08;175.00;;;12.40;;
63906;SDS011;50075;49.484;11.238;2023-05-07T08:36:33;169.13;;;12.93;;
63906;SDS011;50075;49.484;11.238;2023-05-07T08:38:59;224.20;;;14.50;;
63906;SDS011;50075;49.484;11.238;2023-05-07T08:41:24;123.55;;;13.02;;
63906;SDS011;50075;49.484;11.238;2023-05-07T08:43:50;247.05;;;15.65;;
63906;SDS011;50075;49.484;11.238;2023-05-07T08:46:21;255.15;;;17.45;;
63906;SDS011;50075;49.484;11.238;2023-05-07T08:48:50;170.35;;;12.68;;
63906;SDS011;50075;49.484;11.238;2023-05-07T08:51:16;225.00;;;14.20;;
63906;SDS011;50075;49.484;11.238;2023-05-07T08:53:42;255.05;;;15.07;;
63906;SDS011;50075;49.484;11.238;2023-05-07T08:56:10;280.13;;;15.97;;
63906;SDS011;50075;49.484;11.238;2023-05-07T08:58:36;219.05;;;12.32;;
63906;SDS011;50075;49.484;11.238;2023-05-07T09:01:02;180.67;;;11.40;;
63906;SDS011;50075;49.484;11.238;2023-05-07T09:03:28;208.38;;;11.75;;
63906;SDS011;50075;49.484;11.238;2023-05-07T09:05:55;217.05;;;12.05;;
63906;SDS011;50075;49.484;11.238;2023-05-07T09:08:24;228.50;;;12.07;;
63906;SDS011;50075;49.484;11.238;2023-05-07T09:10:49;248.50;;;12.60;;
63906;SDS011;50075;49.484;11.238;2023-05-07T09:13:14;257.47;;;13.80;;
63906;SDS011;50075;49.484;11.238;2023-05-07T09:15:40;249.27;;;12.98;;
63906;SDS011;50075;49.484;11.238;2023-05-07T09:18:05;261.63;;;13.63;;
63906;SDS011;50075;49.484;11.238;2023-05-07T09:20:30;216.98;;;11.80;;
63906;SDS011;50075;49.484;11.238;2023-05-07T09:22:56;217.68;;;11.88;;
63906;SDS011;50075;49.484;11.238;2023-05-07T09:25:28;237.32;;;12.35;;
63906;SDS011;50075;49.484;11.238;2023-05-07T09:27:54;247.98;;;12.48;;
63906;SDS011;50075;49.484;11.238;2023-05-07T09:30:20;304.45;;;13.68;;
63906;SDS011;50075;49.484;11.238;2023-05-07T09:32:45;228.27;;;11.32;;
63906;SDS011;50075;49.484;11.238;2023-05-07T09:35:14;350.63;;;15.60;;
63906;SDS011;50075;49.484;11.238;2023-05-07T09:37:40;267.30;;;13.05;;
63906;SDS011;50075;49.484;11.238;2023-05-07T09:40:06;320.58;;;14.70;;
63906;SDS011;50075;49.484;11.238;2023-05-07T09:42:32;265.60;;;12.20;;
63906;SDS011;50075;49.484;11.238;2023-05-07T09:44:58;235.32;;;11.50;;
63906;SDS011;50075;49.484;11.238;2023-05-07T09:47:24;272.45;;;12.57;;
63906;SDS011;50075;49.484;11.238;2023-05-07T09:49:50;265.77;;;12.52;;
63906;SDS011;50075;49.484;11.238;2023-05-07T09:52:17;255.30;;;12.00;;
63906;SDS011;50075;49.484;11.238;2023-05-07T09:54:43;266.27;;;12.70;;
63906;SDS011;50075;49.484;11.238;2023-05-07T09:57:10;291.20;;;13.75;;
63906;SDS011;50075;49.484;11.238;2023-05-07T09:59:36;251.73;;;11.73;;
63906;SDS011;50075;49.484;11.238;2023-05-07T10:02:02;244.82;;;12.20;;
63906;SDS011;50075;49.484;11.238;2023-05-07T10:04:28;217.90;;;10.93;;
63906;SDS011;50075;49.484;11.238;2023-05-07T10:06:54;244.05;;;12.35;;
63906;SDS011;50075;49.484;11.238;2023-05-07T10:09:20;308.20;;;13.90;;
63906;SDS011;50075;49.484;11.238;2023-05-07T10:11:46;268.08;;;13.82;;
63906;SDS011;50075;49.484;11.238;2023-05-07T10:14:13;309.00;;;15.18;;
63906;SDS011;50075;49.484;11.238;2023-05-07T10:16:39;228.68;;;11.65;;
63906;SDS011;50075;49.484;11.238;2023-05-07T10:19:05;243.75;;;12.68;;
63906;SDS011;50075;49.484;11.238;2023-05-07T10:21:31;232.13;;;11.85;;
63906;SDS011;50075;49.484;11.238;2023-05-07T10:24:20;252.32;;;12.75;;
63906;SDS011;50075;49.484;11.238;2023-05-07T10:26:44;168.80;;;11.02;;
63906;SDS011;50075;49.484;11.238;2023-05-07T10:34:07;162.90;;;9.47;;
63906;SDS011;50075;49.484;11.238;2023-05-07T10:36:34;188.15;;;10.80;;
63906;SDS011;50075;49.484;11.238;2023-05-07T10:39:00;183.82;;;9.70;;
63906;SDS011;50075;49.484;11.238;2023-05-07T10:41:26;171.82;;;9.18;;
63906;SDS011;50075;49.484;11.238;2023-05-07T10:43:51;285.03;;;12.90;;
63906;SDS011;50075;49.484;11.238;2023-05-07T10:46:17;181.97;;;10.10;;
63906;SDS011;50075;49.484;11.238;2023-05-07T10:51:31;141.73;;;8.70;;
63906;SDS011;50075;49.484;11.238;2023-05-07T10:56:35;227.52;;;11.55;;
63906;SDS011;50075;49.484;11.238;2023-05-07T11:01:48;168.52;;;10.13;;
63906;SDS011;50075;49.484;11.238;2023-05-07T11:04:15;174.82;;;10.07;;
63906;SDS011;50075;49.484;11.238;2023-05-07T11:06:40;155.90;;;8.80;;
63906;SDS011;50075;49.484;11.238;2023-05-07T11:09:06;174.27;;;10.20;;
63906;SDS011;50075;49.484;11.238;2023-05-07T11:11:43;188.85;;;10.98;;
63906;SDS011;50075;49.484;11.238;2023-05-07T11:14:09;283.25;;;12.82;;
63906;SDS011;50075;49.484;11.238;2023-05-07T11:16:34;279.70;;;13.88;;
63906;SDS011;50075;49.484;11.238;2023-05-07T11:19:01;207.65;;;11.82;;
63906;SDS011;50075;49.484;11.238;2023-05-07T11:21:40;222.23;;;12.10;;
63906;SDS011;50075;49.484;11.238;2023-05-07T11:24:06;229.98;;;12.18;;
63906;SDS011;50075;49.484;11.238;2023-05-07T11:26:45;179.57;;;10.75;;
63906;SDS011;50075;49.484;11.238;2023-05-07T11:29:11;233.70;;;12.55;;
63906;SDS011;50075;49.484;11.238;2023-05-07T11:31:36;261.20;;;15.88;;
63906;SDS011;50075;49.484;11.238;2023-05-07T11:34:02;326.30;;;21.35;;
63906;SDS011;50075;49.484;11.238;2023-05-07T11:36:32;235.63;;;21.63;;
63906;SDS011;50075;49.484;11.238;2023-05-07T11:38:57;237.93;;;22.75;;
63906;SDS011;50075;49.484;11.238;2023-05-07T11:41:22;252.63;;;21.97;;
63906;SDS011;50075;49.484;11.238;2023-05-07T11:43:54;310.20;;;29.60;;
63906;SDS011;50075;49.484;11.238;2023-05-07T11:46:21;273.63;;;30.90;;
63906;SDS011;50075;49.484;11.238;2023-05-07T11:48:46;215.17;;;27.03;;
63906;SDS011;50075;49.484;11.238;2023-05-07T11:51:11;284.03;;;23.03;;
63906;SDS011;50075;49.484;11.238;2023-05-07T11:53:38;264.08;;;27.33;;
63906;SDS011;50075;49.484;11.238;2023-05-07T11:56:07;232.05;;;25.65;;
63906;SDS011;50075;49.484;11.238;2023-05-07T11:58:33;196.45;;;28.02;;
63906;SDS011;50075;49.484;11.238;2023-05-07T12:00:58;164.70;;;31.80;;
63906;SDS011;50075;49.484;11.238;2023-05-07T12:03:23;230.18;;;28.58;;
63906;SDS011;50075;49.484;11.238;2023-05-07T12:05:48;258.00;;;31.17;;
63906;SDS011;50075;49.484;11.238;2023-05-07T12:08:17;312.70;;;34.13;;
63906;SDS011;50075;49.484;11.238;2023-05-07T12:10:43;221.32;;;30.55;;
63906;SDS011;50075;49.484;11.238;2023-05-07T12:13:15;188.10;;;29.73;;
63906;SDS011;50075;49.484;11.238;2023-05-07T12:15:41;206.05;;;27.98;;
63906;SDS011;50075;49.484;11.238;2023-05-07T12:18:06;295.27;;;34.93;;
63906;SDS011;50075;49.484;11.238;2023-05-07T12:20:31;206.30;;;29.50;;
63906;SDS011;50075;49.484;11.238;2023-05-07T12:22:58;166.75;;;27.65;;
63906;SDS011;50075;49.484;11.238;2023-05-07T12:25:23;188.30;;;22.07;;
63906;SDS011;50075;49.484;11.238;2023-05-07T12:27:52;213.60;;;22.23;;
63906;SDS011;50075;49.484;11.238;2023-05-07T12:30:17;304.15;;;25.27;;
63906;SDS011;50075;49.484;11.238;2023-05-07T12:32:43;241.37;;;24.13;;
63906;SDS011;50075;49.484;11.238;2023-05-07T12:35:09;239.35;;;24.75;;
63906;SDS011;50075;49.484;11.238;2023-05-07T12:37:35;325.27;;;31.83;;
63906;SDS011;50075;49.484;11.238;2023-05-07T12:40:04;194.95;;;31.13;;
63906;SDS011;50075;49.484;11.238;2023-05-07T12:42:35;281.30;;;37.10;;
63906;SDS011;50075;49.484;11.238;2023-05-07T12:45:07;373.88;;;41.20;;
63906;SDS011;50075;49.484;11.238;2023-05-07T12:47:32;309.70;;;38.63;;
63906;SDS011;50075;49.484;11.238;2023-05-07T12:49:58;266.05;;;31.50;;
63906;SDS011;50075;49.484;11.238;2023-05-07T12:52:24;296.88;;;33.15;;
63906;SDS011;50075;49.484;11.238;2023-05-07T12:54:49;334.40;;;29.17;;
63906;SDS011;50075;49.484;11.238;2023-05-07T12:57:14;320.77;;;28.20;;
63906;SDS011;50075;49.484;11.238;2023-05-07T12:59:43;247.95;;;28.73;;
63906;SDS011;50075;49.484;11.238;2023-05-07T13:02:09;365.77;;;29.53;;
63906;SDS011;50075;49.484;11.238;2023-05-07T13:04:34;274.07;;;24.77;;
63906;SDS011;50075;49.484;11.238;2023-05-07T13:07:00;258.65;;;27.02;;
63906;SDS011;50075;49.484;11.238;2023-05-07T13:09:25;255.93;;;27.30;;
63906;SDS011;50075;49.484;11.238;2023-05-07T13:11:50;225.17;;;24.30;;
63906;SDS011;50075;49.484;11.238;2023-05-07T13:14:15;356.57;;;27.13;;
63906;SDS011;50075;49.484;11.238;2023-05-07T13:16:41;306.20;;;25.50;;
63906;SDS011;50075;49.484;11.238;2023-05-07T13:19:06;260.50;;;26.77;;
63906;SDS011;50075;49.484;11.238;2023-05-07T13:21:31;327.00;;;27.97;;
63906;SDS011;50075;49.484;11.238;2023-05-07T13:23:57;274.70;;;26.38;;
63906;SDS011;50075;49.484;11.238;2023-05-07T13:26:23;295.50;;;30.98;;
63906;SDS011;50075;49.484;11.238;2023-05-07T13:28:48;271.35;;;29.45;;
63906;SDS011;50075;49.484;11.238;2023-05-07T13:31:13;399.83;;;38.15;;
63906;SDS011;50075;49.484;11.238;2023-05-07T13:33:39;379.77;;;39.27;;
63906;SDS011;50075;49.484;11.238;2023-05-07T13:36:04;294.70;;;38.55;;
63906;SDS011;50075;49.484;11.238;2023-05-07T13:38:30;286.70;;;43.03;;
63906;SDS011;50075;49.484;11.238;2023-05-07T13:40:55;332.17;;;42.28;;
63906;SDS011;50075;49.484;11.238;2023-05-07T13:43:21;275.70;;;39.37;;
63906;SDS011;50075;49.484;11.238;2023-05-07T13:45:46;286.65;;;39.90;;
63906;SDS011;50075;49.484;11.238;2023-05-07T13:48:11;331.63;;;37.33;;
63906;SDS011;50075;49.484;11.238;2023-05-07T13:50:36;263.90;;;40.53;;
63906;SDS011;50075;49.484;11.238;2023-05-07T13:53:02;303.27;;;43.45;;
63906;SDS011;50075;49.484;11.238;2023-05-07T13:55:28;237.60;;;38.40;;
63906;SDS011;50075;49.484;11.238;2023-05-07T13:57:59;250.20;;;40.63;;
63906;SDS011;50075;49.484;11.238;2023-05-07T14:00:25;337.42;;;43.42;;
63906;SDS011;50075;49.484;11.238;2023-05-07T14:02:51;267.02;;;45.03;;